Time;durP1;ratioP1;P1;durP2;ratioP2;P2;SDS_P1;SDS_P2;PMS_P1;PMS_P2;Temp;Humidity;BMP_temperature;BMP_pressure;BME280_temperature;BME280_humidity;BME280_pressure;Samples;Min_cycle;Max_cycle;Signal;HPM_P1;HPM_P2
2023/03/26 00:00:23;;;;;;;9.98;2.00;;;;;;;;;;8311088;28;21059;-63
2023/03/26 00:04:24;;;;;;;6.18;1.67;;;;;;;;;;8313029;28;20080;-62
2023/03/26 00:08:24;;;;;;;8.82;1.92;;;;;;;;;;8315058;28;20041;-62
2023/03/26 00:12:24;;;;;;;3.80;1.25;;;;;;;;;;8312474;28;20026;-62
2023/03/26 00:16:26;;;;;;;8.43;1.48;;;;;;;;;;8312376;28;20107;-63
2023/03/26 00:20:28;;;;;;;5.90;1.48;;;;;;;;;;8312665;28;20032;-62
2023/03/26 00:24:28;;;;;;;9.48;2.00;;;;;;;;;;8314353;28;20409;-62
2023/03/26 00:28:30;;;;;;;8.77;2.38;;;;;;;;;;8312032;28;20108;-62
2023/03/26 00:32:31;;;;;;;6.78;1.70;;;;;;;;;;8312060;28;20514;-62
2023/03/26 00:36:34;;;;;;;8.50;1.90;;;;;;;;;;8313800;28;20454;-62
2023/03/26 00:40:35;;;;;;;7.70;2.07;;;;;;;;;;8311689;28;20031;-62
2023/03/26 00:44:35;;;;;;;7.18;1.75;;;;;;;;;;8311011;28;20030;-62
2023/03/26 00:48:37;;;;;;;7.53;1.95;;;;;;;;;;8310810;28;20530;-62
2023/03/26 00:52:37;;;;;;;10.57;2.20;;;;;;;;;;8313307;28;20558;-62
2023/03/26 00:56:38;;;;;;;12.17;2.00;;;;;;;;;;8311200;28;20045;-62
2023/03/26 01:00:42;;;;;;;15.18;2.47;;;;;;;;;;8311717;28;20295;-63
2023/03/26 01:04:43;;;;;;;;;;;;;;;;;;8311925;28;20025;-62
2023/03/26 01:08:45;;;;;;;10.20;1.70;;;;;;;;;;8308885;28;19959;-62
2023/03/26 01:12:45;;;;;;;7.60;2.00;;;;;;;;;;8310370;28;20021;-63
2023/03/26 01:16:51;;;;;;;10.95;1.98;;;;;;;;;;8310801;28;20112;-62
2023/03/26 01:20:57;;;;;;;6.93;1.45;;;;;;;;;;8312219;28;20684;-62
2023/03/26 01:24:57;;;;;;;9.25;1.70;;;;;;;;;;8312055;28;20059;-62
2023/03/26 01:29:00;;;;;;;9.35;2.05;;;;;;;;;;8309376;28;20698;-63
2023/03/26 01:33:19;;;;;;;9.10;1.90;;;;;;;;;;8303391;28;20033;-62
2023/03/26 01:37:22;;;;;;;9.05;1.90;;;;;;;;;;8300280;28;20022;-62
2023/03/26 01:41:30;;;;;;;8.30;1.65;;;;;;;;;;8307448;28;20036;-62
2023/03/26 01:45:32;;;;;;;10.73;1.90;;;;;;;;;;8307313;28;20049;-63
2023/03/26 01:49:33;;;;;;;10.73;2.20;;;;;;;;;;8307932;28;20025;-62
2023/03/26 01:53:36;;;;;;;10.15;2.20;;;;;;;;;;8310680;28;20164;-62
2023/03/26 01:57:46;;;;;;;10.13;1.98;;;;;;;;;;8312013;28;20102;-62
2023/03/26 02:01:53;;;;;;;11.02;2.17;;;;;;;;;;8315960;28;20040;-62
2023/03/26 02:06:04;;;;;;;8.93;1.90;;;;;;;;;;8314627;28;20041;-62
2023/03/26 02:10:10;;;;;;;10.13;1.77;;;;;;;;;;8313660;28;20033;-62
2023/03/26 02:14:11;;;;;;;5.22;1.40;;;;;;;;;;8316566;28;20021;-62
2023/03/26 02:18:12;;;;;;;9.55;1.63;;;;;;;;;;8313277;28;20036;-62
2023/03/26 02:22:14;;;;;;;8.70;1.60;;;;;;;;;;8314895;28;20039;-62
2023/03/26 02:26:15;;;;;;;9.70;2.20;;;;;;;;;;8314792;28;20033;-62
2023/03/26 02:30:17;;;;;;;13.55;2.17;;;;;;;;;;8314229;28;20761;-62
2023/03/26 02:34:17;;;;;;;7.43;1.70;;;;;;;;;;8314919;28;20661;-62
2023/03/26 02:38:18;;;;;;;8.50;1.67;;;;;;;;;;8314233;28;20040;-62
2023/03/26 02:42:18;;;;;;;10.32;2.17;;;;;;;;;;8314697;28;20025;-62
2023/03/26 02:46:18;;;;;;;7.82;1.63;;;;;;;;;;8313671;28;20048;-62
2023/03/26 02:50:18;;;;;;;4.97;1.65;;;;;;;;;;8316233;28;20040;-63
2023/03/26 02:54:19;;;;;;;11.18;2.22;;;;;;;;;;8315101;28;20753;-62
2023/03/26 02:58:19;;;;;;;10.38;1.80;;;;;;;;;;8316527;28;20024;-62
2023/03/26 03:02:23;;;;;;;9.13;1.98;;;;;;;;;;8316170;28;20041;-63
2023/03/26 03:06:25;;;;;;;6.72;1.42;;;;;;;;;;8314568;28;20539;-62
2023/03/26 03:10:26;;;;;;;9.90;2.22;;;;;;;;;;8304599;28;20033;-62
2023/03/26 03:14:26;;;;;;;8.05;1.70;;;;;;;;;;8315386;28;20024;-63
2023/03/26 03:18:26;;;;;;;7.93;2.10;;;;;;;;;;8313508;28;20028;-62
2023/03/26 03:22:26;;;;;;;7.75;1.85;;;;;;;;;;8314957;28;20219;-63
2023/03/26 03:26:28;;;;;;;5.63;1.77;;;;;;;;;;8315216;28;20943;-63
2023/03/26 03:30:29;;;;;;;9.18;1.90;;;;;;;;;;8315080;28;20084;-62
2023/03/26 03:34:29;;;;;;;8.75;2.03;;;;;;;;;;8315394;28;20059;-63
2023/03/26 03:38:29;;;;;;;11.23;2.07;;;;;;;;;;8313915;28;20033;-63
2023/03/26 03:42:29;;;;;;;8.00;2.20;;;;;;;;;;8314087;28;20113;-62
2023/03/26 03:46:29;;;;;;;8.68;1.70;;;;;;;;;;8304473;28;20560;-62
2023/03/26 03:50:30;;;;;;;8.55;1.90;;;;;;;;;;8313074;28;20044;-63
2023/03/26 03:54:30;;;;;;;9.25;1.90;;;;;;;;;;8316165;28;20903;-62
2023/03/26 03:58:33;;;;;;;9.15;1.90;;;;;;;;;;8310534;28;20079;-62
2023/03/26 04:02:33;;;;;;;7.22;1.55;;;;;;;;;;8312831;28;20032;-62
2023/03/26 04:06:33;;;;;;;12.50;1.90;;;;;;;;;;8314351;28;20101;-63
2023/03/26 04:10:34;;;;;;;9.15;2.08;;;;;;;;;;8313146;28;20661;-62
2023/03/26 04:14:34;;;;;;;10.18;1.95;;;;;;;;;;8315172;28;20025;-62
2023/03/26 04:18:36;;;;;;;10.23;1.90;;;;;;;;;;8311586;28;20124;-63
2023/03/26 04:22:36;;;;;;;8.75;1.65;;;;;;;;;;8312711;28;20485;-62
2023/03/26 04:26:36;;;;;;;6.53;1.85;;;;;;;;;;8311855;28;20039;-62
2023/03/26 04:30:37;;;;;;;6.55;2.03;;;;;;;;;;8310504;28;20064;-62
2023/03/26 04:34:37;;;;;;;7.43;1.73;;;;;;;;;;8303879;28;20025;-63
2023/03/26 04:38:39;;;;;;;7.82;2.10;;;;;;;;;;8312891;28;20129;-63
2023/03/26 04:42:45;;;;;;;9.45;2.17;;;;;;;;;;8311939;28;20114;-62
2023/03/26 04:46:46;;;;;;;10.25;2.15;;;;;;;;;;8309878;28;20052;-62
2023/03/26 04:50:46;;;;;;;7.60;1.67;;;;;;;;;;8310023;28;20514;-63
2023/03/26 04:54:46;;;;;;;5.97;2.00;;;;;;;;;;8311183;28;20051;-62
2023/03/26 04:58:49;;;;;;;11.07;1.95;;;;;;;;;;8312016;28;20029;-63
2023/03/26 05:02:49;;;;;;;9.55;1.83;;;;;;;;;;8307704;28;20048;-63
2023/03/26 05:06:49;;;;;;;6.65;1.92;;;;;;;;;;8312607;28;20025;-62
2023/03/26 05:10:49;;;;;;;5.47;1.60;;;;;;;;;;8310959;28;20099;-64
2023/03/26 05:14:50;;;;;;;10.90;2.13;;;;;;;;;;8311192;28;20484;-63
2023/03/26 05:18:50;;;;;;;6.30;1.75;;;;;;;;;;8312492;28;20094;-62
2023/03/26 05:22:50;;;;;;;6.95;1.50;;;;;;;;;;8311877;28;20024;-62
2023/03/26 05:26:51;;;;;;;11.95;2.38;;;;;;;;;;8313212;28;20576;-63
2023/03/26 05:30:51;;;;;;;9.40;1.95;;;;;;;;;;8310232;28;20048;-63
2023/03/26 05:34:52;;;;;;;10.88;2.00;;;;;;;;;;8311522;28;20654;-63
2023/03/26 05:38:52;;;;;;;5.90;1.92;;;;;;;;;;8310441;28;20083;-63
2023/03/26 05:42:52;;;;;;;9.20;1.88;;;;;;;;;;8310477;28;20029;-63
2023/03/26 05:46:53;;;;;;;6.43;1.70;;;;;;;;;;8308943;28;20041;-63
2023/03/26 05:50:54;;;;;;;16.98;2.15;;;;;;;;;;8310078;28;20032;-62
2023/03/26 05:54:55;;;;;;;5.32;1.45;;;;;;;;;;8311081;28;20025;-63
2023/03/26 05:58:55;;;;;;;5.43;1.67;;;;;;;;;;8309174;28;20032;-62
2023/03/26 06:02:56;;;;;;;6.28;1.48;;;;;;;;;;8311239;28;20030;-62
2023/03/26 06:06:56;;;;;;;5.70;1.50;;;;;;;;;;8310597;28;20082;-63
2023/03/26 06:11:00;;;;;;;5.60;1.50;;;;;;;;;;8311860;28;20025;-62
2023/03/26 06:15:00;;;;;;;3.08;1.30;;;;;;;;;;8311124;28;20082;-62
2023/03/26 06:19:01;;;;;;;9.07;1.58;;;;;;;;;;8311268;28;20148;-62
2023/03/26 06:23:01;;;;;;;7.38;1.80;;;;;;;;;;8310171;28;20022;-62
2023/03/26 06:27:01;;;;;;;7.37;1.50;;;;;;;;;;8311580;28;20053;-63
2023/03/26 06:31:02;;;;;;;7.68;1.67;;;;;;;;;;8311546;28;20278;-62
2023/03/26 06:35:02;;;;;;;9.27;1.95;;;;;;;;;;8308160;28;20139;-62
2023/03/26 06:39:02;;;;;;;6.75;1.50;;;;;;;;;;8309340;28;20457;-63
2023/03/26 06:43:02;;;;;;;6.38;1.45;;;;;;;;;;8311508;28;20025;-62
2023/03/26 06:47:03;;;;;;;11.98;1.70;;;;;;;;;;8314784;28;20045;-63
2023/03/26 06:51:03;;;;;;;6.13;1.63;;;;;;;;;;8313642;28;20059;-62
2023/03/26 06:55:05;;;;;;;11.47;1.97;;;;;;;;;;8317408;28;20421;-62
2023/03/26 06:59:05;;;;;;;5.38;1.80;;;;;;;;;;8315050;28;21030;-62
2023/03/26 07:03:05;;;;;;;9.30;1.55;;;;;;;;;;8314794;28;20029;-62
2023/03/26 07:07:06;;;;;;;6.53;1.60;;;;;;;;;;8315025;28;20112;-62
2023/03/26 07:11:06;;;;;;;6.13;1.45;;;;;;;;;;8313261;28;20080;-62
2023/03/26 07:15:06;;;;;;;6.93;1.42;;;;;;;;;;8313099;28;20025;-62
2023/03/26 07:19:07;;;;;;;12.18;3.92;;;;;;;;;;8311821;28;20034;-62
2023/03/26 07:23:09;;;;;;;8.80;2.22;;;;;;;;;;8312941;28;20029;-62
2023/03/26 07:27:15;;;;;;;12.05;5.13;;;;;;;;;;8313106;28;20029;-62
2023/03/26 07:31:18;;;;;;;9.93;3.00;;;;;;;;;;8312979;28;20086;-63
2023/03/26 07:35:22;;;;;;;8.87;3.00;;;;;;;;;;8311692;28;20047;-62
2023/03/26 07:40:01;;;;;;;11.48;2.05;;;;;;;;;;8311155;28;20026;-62
2023/03/26 07:44:24;;;;;;;7.43;2.05;;;;;;;;;;8191057;28;20042;-62
2023/03/26 07:48:28;;;;;;;35.42;24.38;;;;;;;;;;8224896;28;20045;-62
2023/03/26 07:52:28;;;;;;;7.30;3.75;;;;;;;;;;8313706;28;20024;-62
2023/03/26 07:56:33;;;;;;;6.40;2.07;;;;;;;;;;8311955;28;20040;-62
2023/03/26 08:00:37;;;;;;;5.50;2.00;;;;;;;;;;8312637;28;20660;-62
2023/03/26 08:04:43;;;;;;;7.10;1.67;;;;;;;;;;8314517;28;20020;-62
2023/03/26 08:08:51;;;;;;;4.13;1.58;;;;;;;;;;8313381;28;20025;-62
2023/03/26 08:12:58;;;;;;;4.55;1.40;;;;;;;;;;8297430;28;20029;-62
2023/03/26 08:17:05;;;;;;;10.18;2.78;;;;;;;;;;8311307;28;20041;-62
2023/03/26 08:21:09;;;;;;;6.72;2.47;;;;;;;;;;8313343;28;20028;-62
2023/03/26 08:25:09;;;;;;;5.55;1.83;;;;;;;;;;8304700;28;20025;-62
2023/03/26 08:29:15;;;;;;;3.85;1.50;;;;;;;;;;8313472;28;20033;-62
2023/03/26 08:33:19;;;;;;;6.88;2.20;;;;;;;;;;8311944;28;20053;-62
2023/03/26 08:37:19;;;;;;;8.50;2.50;;;;;;;;;;8312802;28;20033;-63
2023/03/26 08:41:35;;;;;;;11.13;3.45;;;;;;;;;;8312250;28;20049;-62
2023/03/26 08:45:43;;;;;;;8.02;3.67;;;;;;;;;;8308033;28;20826;-62
2023/03/26 08:49:55;;;;;;;5.05;2.00;;;;;;;;;;8310612;28;20025;-62
2023/03/26 08:54:05;;;;;;;6.30;2.00;;;;;;;;;;8307615;28;20075;-62
2023/03/26 08:58:22;;;;;;;2.88;2.20;;;;;;;;;;8307101;28;20026;-63
2023/03/26 09:02:25;;;;;;;5.35;2.15;;;;;;;;;;8306927;28;20033;-62
2023/03/26 09:06:51;;;;;;;3.10;1.80;;;;;;;;;;8306905;28;20140;-63
2023/03/26 09:11:01;;;;;;;4.95;1.90;;;;;;;;;;8294484;28;20041;-62
2023/03/26 09:15:14;;;;;;;3.55;1.30;;;;;;;;;;8309431;28;20740;-62
2023/03/26 09:19:33;;;;;;;4.13;1.45;;;;;;;;;;8308305;28;20394;-62
2023/03/26 09:23:39;;;;;;;3.60;1.10;;;;;;;;;;8299544;28;20020;-63
2023/03/26 09:27:49;;;;;;;2.25;1.00;;;;;;;;;;8307121;28;20021;-62
2023/03/26 09:32:08;;;;;;;4.03;1.20;;;;;;;;;;8308599;28;20589;-63
2023/03/26 09:36:27;;;;;;;2.80;0.90;;;;;;;;;;8310279;28;20025;-63
2023/03/26 09:40:35;;;;;;;1.55;0.98;;;;;;;;;;8307902;28;20061;-62
2023/03/26 09:44:44;;;;;;;1.77;1.20;;;;;;;;;;8307635;28;20051;-63
2023/03/26 09:48:56;;;;;;;2.53;1.25;;;;;;;;;;8308366;28;20569;-63
2023/03/26 09:53:15;;;;;;;2.70;0.90;;;;;;;;;;8310100;28;20686;-63
2023/03/26 09:57:15;;;;;;;2.05;1.10;;;;;;;;;;8308400;28;20040;-63
2023/03/26 10:01:28;;;;;;;4.05;1.10;;;;;;;;;;8302735;28;20041;-63
2023/03/26 10:05:37;;;;;;;2.63;1.00;;;;;;;;;;8306435;28;20029;-63
2023/03/26 10:09:52;;;;;;;1.52;1.02;;;;;;;;;;8308848;28;20174;-63
2023/03/26 10:13:58;;;;;;;2.92;1.02;;;;;;;;;;8306584;28;20380;-63
2023/03/26 10:18:17;;;;;;;2.35;1.15;;;;;;;;;;8312388;28;20224;-63
2023/03/26 10:22:23;;;;;;;6.38;1.17;;;;;;;;;;8315713;28;20885;-63
2023/03/26 10:26:50;;;;;;;2.28;1.00;;;;;;;;;;8312147;28;20959;-63
2023/03/26 10:31:13;;;;;;;2.53;1.00;;;;;;;;;;8284155;28;20071;-63
2023/03/26 10:35:32;;;;;;;2.50;0.95;;;;;;;;;;8301958;28;20127;-63
2023/03/26 10:39:37;;;;;;;3.15;1.00;;;;;;;;;;8310729;28;20040;-64
2023/03/26 10:43:52;;;;;;;3.45;1.30;;;;;;;;;;8311415;28;20087;-63
2023/03/26 10:47:58;;;;;;;1.67;0.93;;;;;;;;;;8309727;28;20033;-63
2023/03/26 10:52:00;;;;;;;4.22;1.55;;;;;;;;;;8311495;28;20029;-63
2023/03/26 10:56:19;;;;;;;2.58;0.70;;;;;;;;;;8312525;28;20027;-64
2023/03/26 11:00:24;;;;;;;2.28;0.80;;;;;;;;;;8309614;28;20025;-64
2023/03/26 11:04:30;;;;;;;3.85;0.80;;;;;;;;;;8311206;28;20466;-63
2023/03/26 11:08:43;;;;;;;1.52;0.68;;;;;;;;;;8313448;28;20117;-63
2023/03/26 11:12:47;;;;;;;2.75;0.70;;;;;;;;;;8314955;28;20026;-63
2023/03/26 11:16:52;;;;;;;1.92;0.73;;;;;;;;;;8313394;28;20044;-64
2023/03/26 11:21:00;;;;;;;1.80;0.70;;;;;;;;;;8313021;28;20021;-63
2023/03/26 11:25:00;;;;;;;2.13;0.80;;;;;;;;;;8315534;28;20028;-64
2023/03/26 11:29:19;;;;;;;1.33;0.70;;;;;;;;;;8314248;28;20025;-64
2023/03/26 11:33:23;;;;;;;1.58;0.80;;;;;;;;;;8313951;28;20099;-65
2023/03/26 11:37:28;;;;;;;2.78;0.95;;;;;;;;;;8313534;28;20033;-64
2023/03/26 11:41:31;;;;;;;1.80;0.73;;;;;;;;;;8313922;28;20044;-64
2023/03/26 11:45:36;;;;;;;1.27;0.77;;;;;;;;;;8311628;28;20095;-63
2023/03/26 11:49:36;;;;;;;2.55;0.80;;;;;;;;;;8310897;28;20017;-64
2023/03/26 11:53:45;;;;;;;2.45;0.75;;;;;;;;;;8309644;28;20028;-63
2023/03/26 11:57:49;;;;;;;2.90;0.88;;;;;;;;;;8311788;28;21098;-63
2023/03/26 12:01:49;;;;;;;1.25;0.70;;;;;;;;;;8310330;28;20124;-64
2023/03/26 12:05:52;;;;;;;2.60;0.90;;;;;;;;;;8307303;28;20075;-63
2023/03/26 12:09:56;;;;;;;1.50;0.67;;;;;;;;;;8311123;28;20013;-63
2023/03/26 12:14:00;;;;;;;1.90;0.93;;;;;;;;;;8311979;28;20083;-63
2023/03/26 12:18:18;;;;;;;1.67;0.90;;;;;;;;;;8309305;28;20634;-63
2023/03/26 12:22:36;;;;;;;1.90;0.60;;;;;;;;;;8309806;28;20037;-62
2023/03/26 12:26:40;;;;;;;1.63;0.70;;;;;;;;;;8308483;28;20136;-64
2023/03/26 12:30:41;;;;;;;2.10;1.00;;;;;;;;;;8309045;28;20540;-65
2023/03/26 12:34:41;;;;;;;3.00;0.95;;;;;;;;;;8310313;28;20139;-65
2023/03/26 12:38:41;;;;;;;2.03;0.90;;;;;;;;;;8306944;28;20029;-65
2023/03/26 12:42:49;;;;;;;3.20;1.00;;;;;;;;;;8308041;28;20021;-65
2023/03/26 12:46:52;;;;;;;8.00;1.30;;;;;;;;;;8309073;28;20906;-65
2023/03/26 12:51:02;;;;;;;2.80;0.90;;;;;;;;;;8309078;28;20048;-65
2023/03/26 12:55:11;;;;;;;3.42;0.80;;;;;;;;;;8310917;28;20035;-65
2023/03/26 12:59:11;;;;;;;4.40;1.00;;;;;;;;;;8311032;28;20041;-65
2023/03/26 13:03:20;;;;;;;6.57;1.20;;;;;;;;;;8311455;28;20143;-64
2023/03/26 13:07:32;;;;;;;2.95;0.95;;;;;;;;;;8309309;28;21076;-65
2023/03/26 13:11:37;;;;;;;3.42;1.10;;;;;;;;;;8306313;28;20029;-64
2023/03/26 13:15:42;;;;;;;4.47;1.13;;;;;;;;;;8309903;28;20048;-64
2023/03/26 13:20:01;;;;;;;4.85;0.93;;;;;;;;;;8309077;28;20064;-64
2023/03/26 13:24:01;;;;;;;2.47;0.88;;;;;;;;;;8309935;28;20032;-65
2023/03/26 13:28:20;;;;;;;4.57;1.17;;;;;;;;;;8298618;28;20032;-65
2023/03/26 13:32:28;;;;;;;5.95;1.17;;;;;;;;;;8293777;28;20255;-65
2023/03/26 13:36:34;;;;;;;5.90;1.20;;;;;;;;;;8299977;28;20470;-65
2023/03/26 13:40:35;;;;;;;3.50;1.27;;;;;;;;;;8310781;28;20082;-65
2023/03/26 13:44:38;;;;;;;4.20;1.17;;;;;;;;;;8310748;28;20401;-65
2023/03/26 13:48:46;;;;;;;6.47;1.40;;;;;;;;;;8308655;28;20132;-65
2023/03/26 13:52:51;;;;;;;4.05;1.10;;;;;;;;;;8310040;28;20021;-65
2023/03/26 13:57:11;;;;;;;6.07;1.27;;;;;;;;;;8316178;28;20566;-65
2023/03/26 14:01:18;;;;;;;4.75;1.27;;;;;;;;;;8304883;28;20044;-65
2023/03/26 14:05:18;;;;;;;4.75;1.10;;;;;;;;;;8314163;28;20025;-65
2023/03/26 14:09:36;;;;;;;3.22;0.90;;;;;;;;;;8317023;28;20017;-65
2023/03/26 14:13:52;;;;;;;2.67;1.02;;;;;;;;;;8313541;28;20021;-65
2023/03/26 14:18:06;;;;;;;3.47;1.10;;;;;;;;;;8313652;28;20073;-65
2023/03/26 14:22:17;;;;;;;5.53;1.00;;;;;;;;;;8311508;28;20045;-65
2023/03/26 14:26:23;;;;;;;2.97;1.17;;;;;;;;;;8313246;28;20397;-64
2023/03/26 14:30:24;;;;;;;3.83;1.45;;;;;;;;;;8312535;28;20064;-65
2023/03/26 14:34:32;;;;;;;4.32;1.10;;;;;;;;;;8313231;28;20018;-64
2023/03/26 14:38:47;;;;;;;3.95;1.13;;;;;;;;;;8312690;28;20029;-64
2023/03/26 14:42:50;;;;;;;3.30;1.15;;;;;;;;;;8312303;28;20083;-64
2023/03/26 14:46:57;;;;;;;4.93;1.05;;;;;;;;;;8312311;28;20052;-65
2023/03/26 14:50:58;;;;;;;3.15;1.00;;;;;;;;;;8313827;28;20036;-64
2023/03/26 14:55:01;;;;;;;3.40;1.15;;;;;;;;;;8312069;28;20017;-64
2023/03/26 14:59:21;;;;;;;4.30;1.43;;;;;;;;;;8297744;28;20028;-65
2023/03/26 15:03:39;;;;;;;5.05;1.27;;;;;;;;;;8309919;28;20094;-65
2023/03/26 15:07:40;;;;;;;3.28;1.20;;;;;;;;;;8309906;28;20025;-64
2023/03/26 15:11:40;;;;;;;4.38;1.17;;;;;;;;;;8313553;28;20018;-64
2023/03/26 15:15:50;;;;;;;2.58;1.05;;;;;;;;;;8311657;28;20036;-65
2023/03/26 15:19:56;;;;;;;3.58;1.08;;;;;;;;;;8312340;28;20213;-66
2023/03/26 15:24:15;;;;;;;2.65;1.33;;;;;;;;;;8312512;28;20042;-64
2023/03/26 15:28:30;;;;;;;3.00;0.90;;;;;;;;;;8309451;28;20084;-64
2023/03/26 15:32:39;;;;;;;2.78;1.00;;;;;;;;;;8310221;28;20116;-64
2023/03/26 15:36:59;;;;;;;4.38;1.08;;;;;;;;;;8309606;28;20669;-64
2023/03/26 15:41:18;;;;;;;3.80;0.93;;;;;;;;;;8310183;28;20387;-64
2023/03/26 15:45:24;;;;;;;2.35;0.80;;;;;;;;;;8312065;28;20083;-64
2023/03/26 15:49:42;;;;;;;3.10;1.10;;;;;;;;;;8309349;28;20025;-64
2023/03/26 15:53:48;;;;;;;2.75;1.02;;;;;;;;;;8308127;28;20095;-64
2023/03/26 15:57:55;;;;;;;1.95;0.70;;;;;;;;;;8309378;28;20029;-64
2023/03/26 16:02:02;;;;;;;3.10;1.13;;;;;;;;;;8309668;28;20033;-64
2023/03/26 16:06:09;;;;;;;2.25;0.82;;;;;;;;;;8309372;28;20741;-64
2023/03/26 16:10:19;;;;;;;1.15;0.70;;;;;;;;;;8310735;28;20026;-64
2023/03/26 16:14:34;;;;;;;1.08;0.73;;;;;;;;;;8309836;28;20033;-64
2023/03/26 16:18:36;;;;;;;2.15;0.77;;;;;;;;;;8308953;28;20625;-64
2023/03/26 16:22:40;;;;;;;3.63;0.90;;;;;;;;;;8308647;28;20111;-64
2023/03/26 16:26:41;;;;;;;;;;;;;;;;;;8309989;28;20028;-64
2023/03/26 16:30:44;;;;;;;0.52;0.50;;;;;;;;;;8308903;28;20453;-64
2023/03/26 16:34:45;;;;;;;1.95;0.80;;;;;;;;;;8309865;28;20100;-64
2023/03/26 16:38:49;;;;;;;0.67;0.47;;;;;;;;;;8307583;28;20065;-64
2023/03/26 16:42:49;;;;;;;;;;;;;;;;;;8312079;28;20722;-64
2023/03/26 16:47:00;;;;;;;0.40;0.40;;;;;;;;;;8310299;28;19927;-64
2023/03/26 16:51:23;;;;;;;1.63;0.75;;;;;;;;;;8309447;28;20025;-64
2023/03/26 16:55:33;;;;;;;1.17;0.40;;;;;;;;;;8309218;28;20025;-64
2023/03/26 16:59:52;;;;;;;1.60;0.60;;;;;;;;;;8310343;28;20023;-64
2023/03/26 17:04:01;;;;;;;0.85;0.50;;;;;;;;;;8307071;28;20041;-64
2023/03/26 17:08:18;;;;;;;2.60;0.60;;;;;;;;;;8309926;28;20912;-64
2023/03/26 17:12:50;;;;;;;1.67;0.73;;;;;;;;;;8307638;28;20139;-64
2023/03/26 17:17:10;;;;;;;4.10;0.68;;;;;;;;;;8269685;28;20209;-64
2023/03/26 17:21:23;;;;;;;2.63;0.75;;;;;;;;;;8298970;28;20036;-64
2023/03/26 17:25:23;;;;;;;1.90;0.85;;;;;;;;;;8307866;28;20147;-64
2023/03/26 17:29:38;;;;;;;0.85;0.60;;;;;;;;;;8309203;28;20032;-63
2023/03/26 17:33:39;;;;;;;4.85;0.98;;;;;;;;;;8306596;28;20072;-64
2023/03/26 17:37:43;;;;;;;2.40;0.63;;;;;;;;;;8307458;28;20033;-63
2023/03/26 17:41:54;;;;;;;1.42;0.60;;;;;;;;;;8307368;28;20024;-64
2023/03/26 17:45:55;;;;;;;1.35;0.70;;;;;;;;;;8305557;28;20112;-64
2023/03/26 17:49:58;;;;;;;0.70;0.50;;;;;;;;;;8307223;28;20037;-63
2023/03/26 17:53:59;;;;;;;1.58;0.60;;;;;;;;;;8310832;28;20094;-63
2023/03/26 17:58:00;;;;;;;1.75;0.70;;;;;;;;;;8303318;28;20025;-63
2023/03/26 18:02:02;;;;;;;2.33;0.93;;;;;;;;;;8305619;28;20033;-63
2023/03/26 18:06:05;;;;;;;3.60;0.80;;;;;;;;;;8307204;28;20029;-63
2023/03/26 18:10:08;;;;;;;2.05;0.70;;;;;;;;;;8308316;28;20020;-63
2023/03/26 18:14:22;;;;;;;2.15;0.82;;;;;;;;;;8306799;28;20631;-63
2023/03/26 18:18:29;;;;;;;2.55;1.00;;;;;;;;;;8308765;28;20040;-64
2023/03/26 18:22:29;;;;;;;4.53;1.00;;;;;;;;;;8309635;28;20490;-64
2023/03/26 18:26:32;;;;;;;2.60;0.80;;;;;;;;;;8307645;28;21670;-63
2023/03/26 18:30:43;;;;;;;1.63;0.85;;;;;;;;;;8306018;28;20942;-63
2023/03/26 18:34:52;;;;;;;2.97;1.00;;;;;;;;;;8306734;28;20025;-63
2023/03/26 18:38:59;;;;;;;3.13;0.82;;;;;;;;;;8310217;28;20589;-63
2023/03/26 18:42:59;;;;;;;2.30;0.90;;;;;;;;;;8313971;28;20057;-63
2023/03/26 18:47:03;;;;;;;2.33;0.70;;;;;;;;;;8312479;28;20037;-63
2023/03/26 18:51:04;;;;;;;2.70;1.20;;;;;;;;;;8313530;28;20053;-63
2023/03/26 18:55:05;;;;;;;3.88;2.03;;;;;;;;;;8313026;28;20516;-63
2023/03/26 18:59:16;;;;;;;3.08;1.00;;;;;;;;;;8312891;28;20374;-63
2023/03/26 19:03:19;;;;;;;1.52;1.10;;;;;;;;;;8314543;28;20053;-63
2023/03/26 19:07:22;;;;;;;0.90;0.90;;;;;;;;;;8315531;28;20025;-62
2023/03/26 19:11:23;;;;;;;0.63;0.50;;;;;;;;;;8296503;28;20095;-62
2023/03/26 19:15:28;;;;;;;0.60;0.60;;;;;;;;;;8296589;28;20033;-63
2023/03/26 19:19:31;;;;;;;2.05;0.70;;;;;;;;;;8310528;28;20044;-62
2023/03/26 19:23:33;;;;;;;0.60;0.60;;;;;;;;;;8314236;28;20215;-63
2023/03/26 19:27:37;;;;;;;0.93;0.55;;;;;;;;;;8313394;28;20108;-63
2023/03/26 19:31:41;;;;;;;0.40;0.40;;;;;;;;;;8310107;28;20781;-62
2023/03/26 19:35:42;;;;;;;0.90;0.57;;;;;;;;;;8311558;28;20771;-62
2023/03/26 19:39:44;;;;;;;1.65;0.60;;;;;;;;;;8311178;28;20033;-63
2023/03/26 19:43:57;;;;;;;0.60;0.60;;;;;;;;;;8310443;28;20083;-63
2023/03/26 19:47:59;;;;;;;0.50;0.50;;;;;;;;;;8309326;28;20464;-63
2023/03/26 19:52:12;;;;;;;1.13;1.00;;;;;;;;;;8312919;28;20029;-63
2023/03/26 19:56:17;;;;;;;1.23;0.60;;;;;;;;;;8310217;28;20013;-63
2023/03/26 20:00:17;;;;;;;1.42;0.70;;;;;;;;;;8311046;28;20082;-63
2023/03/26 20:04:18;;;;;;;0.50;0.50;;;;;;;;;;8310142;28;20028;-63
2023/03/26 20:08:18;;;;;;;1.88;0.60;;;;;;;;;;8310882;28;20021;-63
2023/03/26 20:12:19;;;;;;;0.85;0.52;;;;;;;;;;8309205;28;20029;-63
2023/03/26 20:16:27;;;;;;;0.45;0.40;;;;;;;;;;8309124;28;20044;-63
2023/03/26 20:20:28;;;;;;;1.65;0.50;;;;;;;;;;8308300;28;20021;-63
2023/03/26 20:24:29;;;;;;;0.50;0.50;;;;;;;;;;8311050;28;20092;-63
2023/03/26 20:28:29;;;;;;;1.27;0.60;;;;;;;;;;8309027;28;20028;-62
2023/03/26 20:32:29;;;;;;;0.50;0.50;;;;;;;;;;8312136;28;22399;-63
2023/03/26 20:36:30;;;;;;;0.43;0.43;;;;;;;;;;8294608;28;20057;-63
2023/03/26 20:40:30;;;;;;;0.50;0.50;;;;;;;;;;8309182;28;20037;-63
2023/03/26 20:44:30;;;;;;;0.40;0.40;;;;;;;;;;8310644;28;20474;-63
2023/03/26 20:48:31;;;;;;;0.55;0.50;;;;;;;;;;8308525;28;20040;-63
2023/03/26 20:52:33;;;;;;;0.50;0.50;;;;;;;;;;8310743;28;20080;-63
2023/03/26 20:56:36;;;;;;;0.47;0.47;;;;;;;;;;8309375;28;20025;-64
2023/03/26 21:00:36;;;;;;;0.60;0.60;;;;;;;;;;8311131;28;20069;-63
2023/03/26 21:04:36;;;;;;;0.50;0.50;;;;;;;;;;8309467;28;20535;-63
2023/03/26 21:08:37;;;;;;;0.60;0.60;;;;;;;;;;8309139;28;20017;-63
2023/03/26 21:12:44;;;;;;;0.55;0.55;;;;;;;;;;8308755;28;20268;-63
2023/03/26 21:16:44;;;;;;;0.60;0.60;;;;;;;;;;8308771;28;20119;-63
2023/03/26 21:20:50;;;;;;;0.60;0.60;;;;;;;;;;8309767;28;20022;-63
2023/03/26 21:25:14;;;;;;;0.60;0.60;;;;;;;;;;8308802;28;20684;-63
2023/03/26 21:29:14;;;;;;;0.60;0.60;;;;;;;;;;8310438;28;20214;-63
2023/03/26 21:33:14;;;;;;;0.50;0.50;;;;;;;;;;8310560;28;20267;-63
2023/03/26 21:37:16;;;;;;;0.60;0.60;;;;;;;;;;8309786;28;20110;-63
2023/03/26 21:41:16;;;;;;;0.60;0.60;;;;;;;;;;8310012;28;20046;-63
2023/03/26 21:45:17;;;;;;;0.70;0.70;;;;;;;;;;8308536;28;20087;-63
2023/03/26 21:49:18;;;;;;;0.88;0.80;;;;;;;;;;8310087;28;20147;-63
2023/03/26 21:53:18;;;;;;;0.60;0.60;;;;;;;;;;8311552;28;20506;-63
2023/03/26 21:57:37;;;;;;;1.33;0.80;;;;;;;;;;8310679;28;20048;-63
2023/03/26 22:01:51;;;;;;;0.77;0.77;;;;;;;;;;8311772;28;20786;-64
2023/03/26 22:06:16;;;;;;;0.88;0.80;;;;;;;;;;8309445;28;20071;-64
2023/03/26 22:10:16;;;;;;;1.20;1.10;;;;;;;;;;8307118;28;20037;-64
2023/03/26 22:14:17;;;;;;;0.85;0.85;;;;;;;;;;8309124;28;20056;-63
2023/03/26 22:18:20;;;;;;;0.90;0.90;;;;;;;;;;8314968;28;20037;-63
2023/03/26 22:22:21;;;;;;;1.20;1.10;;;;;;;;;;8317812;28;20014;-63
2023/03/26 22:26:22;;;;;;;1.45;0.80;;;;;;;;;;8313706;28;20076;-63
2023/03/26 22:30:22;;;;;;;0.95;0.80;;;;;;;;;;8317276;28;25384;-63
2023/03/26 22:34:22;;;;;;;2.15;1.10;;;;;;;;;;8316272;28;20029;-63
2023/03/26 22:38:23;;;;;;;1.30;1.20;;;;;;;;;;8315590;28;20021;-63
2023/03/26 22:42:23;;;;;;;3.03;1.50;;;;;;;;;;8313777;28;20676;-64
2023/03/26 22:46:24;;;;;;;2.05;1.85;;;;;;;;;;8314621;28;20068;-64
2023/03/26 22:50:24;;;;;;;2.23;1.90;;;;;;;;;;8314606;28;20029;-64
2023/03/26 22:54:25;;;;;;;2.65;2.17;;;;;;;;;;8297221;28;20057;-63
2023/03/26 22:58:26;;;;;;;2.50;2.30;;;;;;;;;;8316375;28;20225;-64
2023/03/26 23:02:26;;;;;;;4.15;2.90;;;;;;;;;;8316573;28;20094;-63
2023/03/26 23:06:26;;;;;;;3.90;2.42;;;;;;;;;;8315850;28;20054;-64
2023/03/26 23:10:28;;;;;;;2.75;2.45;;;;;;;;;;8316467;28;20025;-64
2023/03/26 23:14:31;;;;;;;3.22;2.30;;;;;;;;;;8315071;28;20707;-63
2023/03/26 23:18:31;;;;;;;4.13;2.30;;;;;;;;;;8315221;28;20037;-63
2023/03/26 23:22:34;;;;;;;6.88;2.50;;;;;;;;;;8316232;28;20082;-63
2023/03/26 23:26:34;;;;;;;3.17;2.20;;;;;;;;;;8313036;28;20026;-64
2023/03/26 23:30:34;;;;;;;4.67;2.60;;;;;;;;;;8314125;28;20029;-63
2023/03/26 23:34:34;;;;;;;5.93;2.53;;;;;;;;;;8313400;28;20028;-63
2023/03/26 23:38:35;;;;;;;5.55;2.50;;;;;;;;;;8316483;28;20045;-64
2023/03/26 23:42:36;;;;;;;7.35;3.00;;;;;;;;;;8314435;28;20766;-64
2023/03/26 23:46:40;;;;;;;5.82;2.90;;;;;;;;;;8312082;28;20938;-64
2023/03/26 23:50:40;;;;;;;9.25;3.00;;;;;;;;;;8313952;28;20955;-63
2023/03/26 23:54:41;;;;;;;10.90;3.30;;;;;;;;;;8315677;28;20043;-63
2023/03/26 23:58:41;;;;;;;13.13;3.50;;;;;;;;;;8313527;28;20056;-63
